sensor_id;sensor_type;location;lat;lon;timestamp;pressure;altitude;pressure_sealevel;temperature;humidity
68891;BME280;55932;48.702;8.884;2023-01-31T00:10:17;97000;;;0.7;76.5
68891;BME280;55932;48.702;8.884;2023-01-31T00:15:25;97010;;;0.7;76.5
68891;BME280;55932;48.702;8.884;2023-01-31T00:17:56;97010;;;0.8;76.5
68891;BME280;55932;48.702;8.884;2023-01-31T00:20:27;97010;;;0.8;76.5
68891;BME280;55932;48.702;8.884;2023-01-31T00:22:50;97010;;;0.8;76.5
68891;BME280;55932;48.702;8.884;2023-01-31T00:25:21;97010;;;0.7;76.5
68891;BME280;55932;48.702;8.884;2023-01-31T00:27:52;97000;;;0.7;76.5
68891;BME280;55932;48.702;8.884;2023-01-31T00:35:24;97000;;;0.7;76.5
68891;BME280;55932;48.702;8.884;2023-01-31T00:37:55;97000;;;0.7;76.5
68891;BME280;55932;48.702;8.884;2023-01-31T00:40:27;97000;;;0.6;76.5
68891;BME280;55932;48.702;8.884;2023-01-31T00:42:57;97000;;;0.6;76.5
68891;BME280;55932;48.702;8.884;2023-01-31T00:45:34;97000;;;0.6;76.5
68891;BME280;55932;48.702;8.884;2023-01-31T00:48:05;97000;;;0.8;76.5
68891;BME280;55932;48.702;8.884;2023-01-31T00:53:00;96990;;;0.7;76.5
68891;BME280;55932;48.702;8.884;2023-01-31T00:55:31;96990;;;0.7;76.5
68891;BME280;55932;48.702;8.884;2023-01-31T01:08:05;96970;;;0.3;76.5
68891;BME280;55932;48.702;8.884;2023-01-31T01:10:36;96970;;;0.3;76.5
68891;BME280;55932;48.702;8.884;2023-01-31T01:15:50;96980;;;0.2;76.5
68891;BME280;55932;48.702;8.884;2023-01-31T01:18:20;96980;;;0.5;76.5
68891;BME280;55932;48.702;8.884;2023-01-31T01:23:15;96980;;;0.8;76.5
68891;BME280;55932;48.702;8.884;2023-01-31T01:25:45;96980;;;1;76
68891;BME280;55932;48.702;8.884;2023-01-31T01:28:40;96990;;;1.1;76
68891;BME280;55932;48.702;8.884;2023-01-31T01:30:54;96980;;;1;76
68891;BME280;55932;48.702;8.884;2023-01-31T01:36:03;96980;;;1.1;76
68891;BME280;55932;48.702;8.884;2023-01-31T01:38:39;96980;;;1.1;76
68891;BME280;55932;48.702;8.884;2023-01-31T01:40:55;96970;;;1;76
68891;BME280;55932;48.702;8.884;2023-01-31T01:43:20;96980;;;0.8;76.5
68891;BME280;55932;48.702;8.884;2023-01-31T01:45:51;96980;;;0.7;76.5
68891;BME280;55932;48.702;8.884;2023-01-31T01:48:22;96980;;;0.6;76.5
68891;BME280;55932;48.702;8.884;2023-01-31T01:50:53;96980;;;0.6;76.5
68891;BME280;55932;48.702;8.884;2023-01-31T01:53:24;96980;;;0.5;76.5
68891;BME280;55932;48.702;8.884;2023-01-31T01:55:56;96980;;;0.5;76.5
68891;BME280;55932;48.702;8.884;2023-01-31T01:58:27;96980;;;0.5;76.5
68891;BME280;55932;48.702;8.884;2023-01-31T02:01:04;96980;;;0.6;76.5
68891;BME280;55932;48.702;8.884;2023-01-31T02:06:00;96970;;;0.6;76.5
68891;BME280;55932;48.702;8.884;2023-01-31T02:08:30;96970;;;0.5;76.5
68891;BME280;55932;48.702;8.884;2023-01-31T02:11:02;96970;;;0.5;76.5
68891;BME280;55932;48.702;8.884;2023-01-31T02:13:32;96960;;;0.5;76.5
68891;BME280;55932;48.702;8.884;2023-01-31T02:16:03;96960;;;0.5;76.5
68891;BME280;55932;48.702;8.884;2023-01-31T02:18:33;96960;;;0.4;76.5
68891;BME280;55932;48.702;8.884;2023-01-31T02:21:12;96960;;;0.4;76.5
68891;BME280;55932;48.702;8.884;2023-01-31T02:24:13;96970;;;0.5;76.5
68891;BME280;55932;48.702;8.884;2023-01-31T02:26:15;96970;;;0.5;76.5
68891;BME280;55932;48.702;8.884;2023-01-31T02:28:41;96980;;;0.5;76.5
68891;BME280;55932;48.702;8.884;2023-01-31T02:31:34;96980;;;0.5;76.5
68891;BME280;55932;48.702;8.884;2023-01-31T02:33:51;96990;;;0.5;76.5
68891;BME280;55932;48.702;8.884;2023-01-31T02:38:40;96980;;;0.4;76.5
68891;BME280;55932;48.702;8.884;2023-01-31T02:41:13;97000;;;0.4;76.5
68891;BME280;55932;48.702;8.884;2023-01-31T02:43:42;96990;;;0.6;76.5
68891;BME280;55932;48.702;8.884;2023-01-31T02:46:13;97000;;;0.5;76.5
68891;BME280;55932;48.702;8.884;2023-01-31T02:48:45;97000;;;0.4;76.5
68891;BME280;55932;48.702;8.884;2023-01-31T02:51:07;97000;;;0.5;76.5
68891;BME280;55932;48.702;8.884;2023-01-31T02:58:38;97000;;;0.4;76.5
68891;BME280;55932;48.702;8.884;2023-01-31T03:01:09;97010;;;0.4;76.5
68891;BME280;55932;48.702;8.884;2023-01-31T03:03:40;97010;;;0.4;76.5
68891;BME280;55932;48.702;8.884;2023-01-31T03:06:11;97010;;;0.4;76.5
68891;BME280;55932;48.702;8.884;2023-01-31T03:08:42;97010;;;0.4;76.5
68891;BME280;55932;48.702;8.884;2023-01-31T03:11:12;97010;;;0.5;76.5
68891;BME280;55932;48.702;8.884;2023-01-31T03:13:46;97020;;;0.4;76.5
68891;BME280;55932;48.702;8.884;2023-01-31T03:16:26;97020;;;0.3;76.5
68891;BME280;55932;48.702;8.884;2023-01-31T03:18:55;97010;;;0.2;76.5
68891;BME280;55932;48.702;8.884;2023-01-31T03:21:24;97010;;;0.1;76.5
68891;BME280;55932;48.702;8.884;2023-01-31T03:28:48;97010;;;0.3;76.5
68891;BME280;55932;48.702;8.884;2023-01-31T03:31:20;97010;;;0.5;76.5
68891;BME280;55932;48.702;8.884;2023-01-31T03:33:50;97010;;;0.7;76
68891;BME280;55932;48.702;8.884;2023-01-31T03:36:23;97020;;;0.7;76
68891;BME280;55932;48.702;8.884;2023-01-31T03:39:03;97020;;;0.5;76
68891;BME280;55932;48.702;8.884;2023-01-31T03:41:30;97020;;;0.3;76.5
68891;BME280;55932;48.702;8.884;2023-01-31T03:46:25;97020;;;0;76.5
68891;BME280;55932;48.702;8.884;2023-01-31T03:48:54;97020;;;0;76.5
68891;BME280;55932;48.702;8.884;2023-01-31T03:56:28;97020;;;-0.2;76.5
68891;BME280;55932;48.702;8.884;2023-01-31T03:58:58;97020;;;-0.2;76.5
68891;BME280;55932;48.702;8.884;2023-01-31T04:01:28;97020;;;-0.3;76.5
68891;BME280;55932;48.702;8.884;2023-01-31T04:04:01;97030;;;-0.5;76.5
68891;BME280;55932;48.702;8.884;2023-01-31T04:06:30;97030;;;-0.6;76.5
68891;BME280;55932;48.702;8.884;2023-01-31T04:09:08;97040;;;-0.6;77
68891;BME280;55932;48.702;8.884;2023-01-31T04:11:39;97040;;;-0.6;77
68891;BME280;55932;48.702;8.884;2023-01-31T04:14:09;97040;;;-0.8;77
68891;BME280;55932;48.702;8.884;2023-01-31T04:16:33;97050;;;-0.8;77
68891;BME280;55932;48.702;8.884;2023-01-31T04:31:37;97040;;;-1.2;77
68891;BME280;55932;48.702;8.884;2023-01-31T04:34:08;97040;;;-1.1;76.5
68891;BME280;55932;48.702;8.884;2023-01-31T04:41:53;97050;;;-1.2;76.5
68891;BME280;55932;48.702;8.884;2023-01-31T04:44:23;97030;;;-1.2;76.5
68891;BME280;55932;48.702;8.884;2023-01-31T04:46:53;97040;;;-1.2;76.5
68891;BME280;55932;48.702;8.884;2023-01-31T04:49:23;97030;;;-1.2;76.5
68891;BME280;55932;48.702;8.884;2023-01-31T04:51:53;97040;;;-1.1;76.5
68891;BME280;55932;48.702;8.884;2023-01-31T04:54:24;97050;;;-1;77
68891;BME280;55932;48.702;8.884;2023-01-31T04:56:55;97040;;;-0.9;76.5
68891;BME280;55932;48.702;8.884;2023-01-31T04:59:20;97040;;;-0.9;76.5
68891;BME280;55932;48.702;8.884;2023-01-31T05:04:15;97030;;;-1.1;76.5
68891;BME280;55932;48.702;8.884;2023-01-31T05:14:17;97040;;;-1.4;76.5
68891;BME280;55932;48.702;8.884;2023-01-31T05:16:51;97040;;;-1.5;77
68891;BME280;55932;48.702;8.884;2023-01-31T05:21:49;97040;;;-1.6;76.5
68891;BME280;55932;48.702;8.884;2023-01-31T05:26:57;97040;;;-1.6;76.5
68891;BME280;55932;48.702;8.884;2023-01-31T05:29:28;97050;;;-1.5;76.5
68891;BME280;55932;48.702;8.884;2023-01-31T05:31:59;97040;;;-1.4;76.5
68891;BME280;55932;48.702;8.884;2023-01-31T05:41:55;97050;;;-0.7;76.5
68891;BME280;55932;48.702;8.884;2023-01-31T05:44:26;97060;;;-0.6;76.5
68891;BME280;55932;48.702;8.884;2023-01-31T05:46:57;97050;;;-0.6;76.5
68891;BME280;55932;48.702;8.884;2023-01-31T05:49:27;97050;;;-0.6;76.5
68891;BME280;55932;48.702;8.884;2023-01-31T05:52:05;97050;;;-0.6;76.5
68891;BME280;55932;48.702;8.884;2023-01-31T05:54:37;97050;;;-0.6;76.5
68891;BME280;55932;48.702;8.884;2023-01-31T05:57:06;97040;;;-0.7;76.5
68891;BME280;55932;48.702;8.884;2023-01-31T05:59:30;97050;;;-0.8;77
68891;BME280;55932;48.702;8.884;2023-01-31T06:09:33;97060;;;-0.8;77
68891;BME280;55932;48.702;8.884;2023-01-31T06:12:05;97060;;;-0.9;77
68891;BME280;55932;48.702;8.884;2023-01-31T06:14:35;97060;;;-0.9;77
68891;BME280;55932;48.702;8.884;2023-01-31T06:19:43;97060;;;-1;77
68891;BME280;55932;48.702;8.884;2023-01-31T06:22:13;97060;;;-0.9;77
68891;BME280;55932;48.702;8.884;2023-01-31T06:27:08;97060;;;-0.8;77
68891;BME280;55932;48.702;8.884;2023-01-31T06:37:12;97070;;;-0.6;77
68891;BME280;55932;48.702;8.884;2023-01-31T06:39:47;97080;;;-0.6;77
68891;BME280;55932;48.702;8.884;2023-01-31T06:42:13;97080;;;-0.6;77
68891;BME280;55932;48.702;8.884;2023-01-31T06:47:21;97080;;;-0.6;77
68891;BME280;55932;48.702;8.884;2023-01-31T06:49:52;97080;;;-0.5;77
68891;BME280;55932;48.702;8.884;2023-01-31T06:52:23;97080;;;-0.5;77
68891;BME280;55932;48.702;8.884;2023-01-31T06:54:46;97080;;;-0.5;77
68891;BME280;55932;48.702;8.884;2023-01-31T06:59:48;97080;;;-0.4;77
68891;BME280;55932;48.702;8.884;2023-01-31T07:02:19;97070;;;-0.4;77
68891;BME280;55932;48.702;8.884;2023-01-31T07:07:21;97060;;;-0.3;77
68891;BME280;55932;48.702;8.884;2023-01-31T07:09:52;97060;;;-0.4;77
68891;BME280;55932;48.702;8.884;2023-01-31T07:12:22;97050;;;-0.4;77
68891;BME280;55932;48.702;8.884;2023-01-31T07:14:53;97070;;;-0.3;77
68891;BME280;55932;48.702;8.884;2023-01-31T07:25:14;97080;;;-0.2;77
68891;BME280;55932;48.702;8.884;2023-01-31T07:30:10;97080;;;-0.4;77
68891;BME280;55932;48.702;8.884;2023-01-31T07:32:39;97080;;;-0.3;77
68891;BME280;55932;48.702;8.884;2023-01-31T07:35:09;97080;;;-0.2;77
68891;BME280;55932;48.702;8.884;2023-01-31T07:37:39;97080;;;-0.1;76.5
68891;BME280;55932;48.702;8.884;2023-01-31T07:40:03;97080;;;-0.1;77
68891;BME280;55932;48.702;8.884;2023-01-31T07:42:35;97080;;;0;76.5
68891;BME280;55932;48.702;8.884;2023-01-31T07:50:07;97070;;;0.2;76.5
68891;BME280;55932;48.702;8.884;2023-01-31T07:55:16;97070;;;1.1;75
68891;BME280;55932;48.702;8.884;2023-01-31T07:57:46;97080;;;0.9;75.5
68891;BME280;55932;48.702;8.884;2023-01-31T08:00:16;97080;;;1.1;75.5
68891;BME280;55932;48.702;8.884;2023-01-31T08:05:10;97080;;;1.8;75
68891;BME280;55932;48.702;8.884;2023-01-31T08:07:41;97080;;;1.9;74.5
68891;BME280;55932;48.702;8.884;2023-01-31T08:10:11;97080;;;1.7;75
68891;BME280;55932;48.702;8.884;2023-01-31T08:12:52;97090;;;1.8;75
68891;BME280;55932;48.702;8.884;2023-01-31T08:20:35;97090;;;2.4;74.5
68891;BME280;55932;48.702;8.884;2023-01-31T08:22:52;97080;;;3.2;73.5
68891;BME280;55932;48.702;8.884;2023-01-31T08:27:45;97070;;;4.2;73
68891;BME280;55932;48.702;8.884;2023-01-31T08:30:17;97060;;;4.8;72
68891;BME280;55932;48.702;8.884;2023-01-31T08:32:48;97060;;;4.8;73
68891;BME280;55932;48.702;8.884;2023-01-31T08:35:12;97070;;;5;72.5
68891;BME280;55932;48.702;8.884;2023-01-31T08:42:52;97060;;;5.7;72.5
68891;BME280;55932;48.702;8.884;2023-01-31T08:45:15;97060;;;5.8;72.5
68891;BME280;55932;48.702;8.884;2023-01-31T08:47:46;97050;;;6.9;71.5
68891;BME280;55932;48.702;8.884;2023-01-31T08:50:16;97040;;;8;69
68891;BME280;55932;48.702;8.884;2023-01-31T08:55:24;97040;;;5.9;72.5
68891;BME280;55932;48.702;8.884;2023-01-31T08:57:55;97050;;;5.2;73.5
68891;BME280;55932;48.702;8.884;2023-01-31T09:00:26;97050;;;4.8;74.5
68891;BME280;55932;48.702;8.884;2023-01-31T09:02:51;97050;;;4.5;75
68891;BME280;55932;48.702;8.884;2023-01-31T09:10:23;97050;;;4.1;75.5
68891;BME280;55932;48.702;8.884;2023-01-31T09:12:53;97050;;;4;76
68891;BME280;55932;48.702;8.884;2023-01-31T09:15:24;97050;;;4.1;76
68891;BME280;55932;48.702;8.884;2023-01-31T09:17:55;97050;;;4.2;75.5
68891;BME280;55932;48.702;8.884;2023-01-31T09:23:02;97050;;;4.2;75.5
68891;BME280;55932;48.702;8.884;2023-01-31T09:28:04;97040;;;4.5;75.5
68891;BME280;55932;48.702;8.884;2023-01-31T09:30:28;97040;;;4.6;75.5
68891;BME280;55932;48.702;8.884;2023-01-31T09:38:01;97040;;;4.7;75.5
68891;BME280;55932;48.702;8.884;2023-01-31T09:40:31;97030;;;4.5;75.5
68891;BME280;55932;48.702;8.884;2023-01-31T09:43:02;97030;;;4.4;75.5
68891;BME280;55932;48.702;8.884;2023-01-31T09:45:34;97030;;;4.4;75.5
68891;BME280;55932;48.702;8.884;2023-01-31T09:50:42;97030;;;4;75.5
68891;BME280;55932;48.702;8.884;2023-01-31T09:53:11;97020;;;3.8;75.5
68891;BME280;55932;48.702;8.884;2023-01-31T09:55:46;97030;;;3.7;76
68891;BME280;55932;48.702;8.884;2023-01-31T09:58:08;97030;;;3.7;76
68891;BME280;55932;48.702;8.884;2023-01-31T10:05:39;97050;;;3.7;75.5
68891;BME280;55932;48.702;8.884;2023-01-31T10:08:14;97040;;;3.8;75.5
68891;BME280;55932;48.702;8.884;2023-01-31T10:10:55;97050;;;3.8;75.5
68891;BME280;55932;48.702;8.884;2023-01-31T10:13:13;97050;;;3.9;75.5
68891;BME280;55932;48.702;8.884;2023-01-31T10:18:26;97050;;;3.8;76
68891;BME280;55932;48.702;8.884;2023-01-31T10:20:50;97050;;;3.7;76
68891;BME280;55932;48.702;8.884;2023-01-31T10:23:23;97060;;;3.8;76
68891;BME280;55932;48.702;8.884;2023-01-31T10:25:46;97060;;;3.9;75.5
68891;BME280;55932;48.702;8.884;2023-01-31T10:33:27;97050;;;5.3;76.5
68891;BME280;55932;48.702;8.884;2023-01-31T10:35:47;97040;;;7.2;77
68891;BME280;55932;48.702;8.884;2023-01-31T10:38:23;97030;;;8.9;74.5
68891;BME280;55932;48.702;8.884;2023-01-31T10:43:36;97030;;;7.8;74.5
68891;BME280;55932;48.702;8.884;2023-01-31T10:45:58;97030;;;7.5;75
68891;BME280;55932;48.702;8.884;2023-01-31T10:58:24;97030;;;8.1;74.5
68891;BME280;55932;48.702;8.884;2023-01-31T11:00:55;97030;;;7.5;75.5
68891;BME280;55932;48.702;8.884;2023-01-31T11:03:27;97020;;;7.9;76
68891;BME280;55932;48.702;8.884;2023-01-31T11:05:57;97010;;;9.3;76
68891;BME280;55932;48.702;8.884;2023-01-31T11:08:30;97010;;;8.8;74.5
68891;BME280;55932;48.702;8.884;2023-01-31T11:11:06;97020;;;7.6;75
68891;BME280;55932;48.702;8.884;2023-01-31T11:13:37;97010;;;7.2;76
68891;BME280;55932;48.702;8.884;2023-01-31T11:16:07;97020;;;7.7;77
68891;BME280;55932;48.702;8.884;2023-01-31T11:18:45;97020;;;8.5;77
68891;BME280;55932;48.702;8.884;2023-01-31T11:21:08;97010;;;9.4;76
68891;BME280;55932;48.702;8.884;2023-01-31T11:23:46;97010;;;10.4;76
68891;BME280;55932;48.702;8.884;2023-01-31T11:27:23;97000;;;11;75.5
68891;BME280;55932;48.702;8.884;2023-01-31T11:31:16;96980;;;11.5;72
68891;BME280;55932;48.702;8.884;2023-01-31T11:33:43;96980;;;10.2;73.5
68891;BME280;55932;48.702;8.884;2023-01-31T11:36:15;96970;;;9.2;73
68891;BME280;55932;48.702;8.884;2023-01-31T11:38:44;96960;;;7.8;74.5
68891;BME280;55932;48.702;8.884;2023-01-31T11:41:31;96960;;;7.1;77
68891;BME280;55932;48.702;8.884;2023-01-31T11:43:45;96960;;;6.5;77
68891;BME280;55932;48.702;8.884;2023-01-31T11:46:23;96950;;;6;77.5
68891;BME280;55932;48.702;8.884;2023-01-31T11:48:47;96950;;;5.6;77.5
68891;BME280;55932;48.702;8.884;2023-01-31T11:51:27;96940;;;5.2;77.5
68891;BME280;55932;48.702;8.884;2023-01-31T11:56:23;96940;;;4.7;78
68891;BME280;55932;48.702;8.884;2023-01-31T11:58:52;96960;;;4.6;78
68891;BME280;55932;48.702;8.884;2023-01-31T12:03:54;96970;;;4.6;77.5
68891;BME280;55932;48.702;8.884;2023-01-31T12:06:26;96970;;;4.5;77.5
68891;BME280;55932;48.702;8.884;2023-01-31T12:08:56;96960;;;4.3;77.5
68891;BME280;55932;48.702;8.884;2023-01-31T12:16:34;96970;;;3.9;78
68891;BME280;55932;48.702;8.884;2023-01-31T12:19:20;96960;;;3.9;77.5
68891;BME280;55932;48.702;8.884;2023-01-31T12:21:33;96950;;;3.9;77.5
68891;BME280;55932;48.702;8.884;2023-01-31T12:24:02;96960;;;3.9;77.5
68891;BME280;55932;48.702;8.884;2023-01-31T12:29:05;96930;;;4;77.5
68891;BME280;55932;48.702;8.884;2023-01-31T12:34:18;96910;;;4;77.5
68891;BME280;55932;48.702;8.884;2023-01-31T12:36:46;96910;;;4;77.5
68891;BME280;55932;48.702;8.884;2023-01-31T12:39:13;96920;;;3.9;77.5
68891;BME280;55932;48.702;8.884;2023-01-31T12:44:13;96930;;;3.7;77.5
68891;BME280;55932;48.702;8.884;2023-01-31T12:49:18;96920;;;3.5;77.5
68891;BME280;55932;48.702;8.884;2023-01-31T13:01:51;96900;;;3.7;77
68891;BME280;55932;48.702;8.884;2023-01-31T13:06:44;96900;;;3.7;77
68891;BME280;55932;48.702;8.884;2023-01-31T13:09:09;96900;;;3.7;77
68891;BME280;55932;48.702;8.884;2023-01-31T13:11:39;96880;;;3.6;77
68891;BME280;55932;48.702;8.884;2023-01-31T13:14:11;96880;;;3.6;77
68891;BME280;55932;48.702;8.884;2023-01-31T13:16:40;96870;;;3.6;77
68891;BME280;55932;48.702;8.884;2023-01-31T13:19:15;96870;;;3.6;77
68891;BME280;55932;48.702;8.884;2023-01-31T13:21:49;96870;;;3.7;77
68891;BME280;55932;48.702;8.884;2023-01-31T13:24:21;96880;;;3.8;77
68891;BME280;55932;48.702;8.884;2023-01-31T13:29:15;96860;;;3.6;77
68891;BME280;55932;48.702;8.884;2023-01-31T13:32:01;96860;;;3.6;77
68891;BME280;55932;48.702;8.884;2023-01-31T13:39:25;96860;;;3.5;77
68891;BME280;55932;48.702;8.884;2023-01-31T13:41:53;96850;;;3.5;77
68891;BME280;55932;48.702;8.884;2023-01-31T13:44:24;96840;;;3.4;77
68891;BME280;55932;48.702;8.884;2023-01-31T13:46:50;96850;;;3.4;77
68891;BME280;55932;48.702;8.884;2023-01-31T13:49:22;96850;;;3.4;77
68891;BME280;55932;48.702;8.884;2023-01-31T13:51:58;96860;;;3.5;77
68891;BME280;55932;48.702;8.884;2023-01-31T13:56:48;96860;;;3.3;77
68891;BME280;55932;48.702;8.884;2023-01-31T13:59:17;96860;;;3.3;77
68891;BME280;55932;48.702;8.884;2023-01-31T14:01:47;96860;;;3.4;77
68891;BME280;55932;48.702;8.884;2023-01-31T14:04:22;96860;;;3.5;77
68891;BME280;55932;48.702;8.884;2023-01-31T14:11:50;96850;;;3.6;77
68891;BME280;55932;48.702;8.884;2023-01-31T14:14:37;96860;;;3.6;77
68891;BME280;55932;48.702;8.884;2023-01-31T14:17:09;96850;;;3.6;77
68891;BME280;55932;48.702;8.884;2023-01-31T14:27:01;96820;;;3.6;77
68891;BME280;55932;48.702;8.884;2023-01-31T14:29:31;96810;;;3.7;77
68891;BME280;55932;48.702;8.884;2023-01-31T14:34:39;96820;;;4.1;76.5
68891;BME280;55932;48.702;8.884;2023-01-31T14:37:15;96830;;;4.2;76.5
68891;BME280;55932;48.702;8.884;2023-01-31T14:42:14;96820;;;4;76.5
68891;BME280;55932;48.702;8.884;2023-01-31T14:44:39;96810;;;3.8;76.5
68891;BME280;55932;48.702;8.884;2023-01-31T14:47:15;96810;;;3.8;77
68891;BME280;55932;48.702;8.884;2023-01-31T14:49:49;96810;;;3.7;77
68891;BME280;55932;48.702;8.884;2023-01-31T14:57:16;96810;;;3.7;77
68891;BME280;55932;48.702;8.884;2023-01-31T14:59:53;96810;;;3.7;77
68891;BME280;55932;48.702;8.884;2023-01-31T15:04:39;96820;;;3.6;77
68891;BME280;55932;48.702;8.884;2023-01-31T15:07:13;96820;;;3.5;77
68891;BME280;55932;48.702;8.884;2023-01-31T15:09:40;96810;;;3.5;77
68891;BME280;55932;48.702;8.884;2023-01-31T15:14:49;96790;;;3.5;77
68891;BME280;55932;48.702;8.884;2023-01-31T15:17:20;96810;;;3.6;77
68891;BME280;55932;48.702;8.884;2023-01-31T15:22:15;96820;;;3.6;77
68891;BME280;55932;48.702;8.884;2023-01-31T15:24:48;96830;;;3.7;77
68891;BME280;55932;48.702;8.884;2023-01-31T15:27:18;96830;;;3.7;77
68891;BME280;55932;48.702;8.884;2023-01-31T15:29:49;96830;;;3.6;77
68891;BME280;55932;48.702;8.884;2023-01-31T15:32:19;96840;;;3.6;77
68891;BME280;55932;48.702;8.884;2023-01-31T15:34:52;96840;;;3.6;77
68891;BME280;55932;48.702;8.884;2023-01-31T15:37:20;96840;;;3.5;77
68891;BME280;55932;48.702;8.884;2023-01-31T15:39:59;96850;;;3.5;77
68891;BME280;55932;48.702;8.884;2023-01-31T15:42:29;96850;;;3.5;77
68891;BME280;55932;48.702;8.884;2023-01-31T15:52:32;96850;;;3.5;77
68891;BME280;55932;48.702;8.884;2023-01-31T15:55:03;96850;;;3.4;77
68891;BME280;55932;48.702;8.884;2023-01-31T15:59:56;96870;;;3.4;77
68891;BME280;55932;48.702;8.884;2023-01-31T16:02:27;96880;;;3.4;77
68891;BME280;55932;48.702;8.884;2023-01-31T16:04:57;96880;;;3.3;77
68891;BME280;55932;48.702;8.884;2023-01-31T16:10:13;96860;;;3.3;77
68891;BME280;55932;48.702;8.884;2023-01-31T16:12:48;96870;;;3.3;77
68891;BME280;55932;48.702;8.884;2023-01-31T16:17:29;96870;;;3.2;77
68891;BME280;55932;48.702;8.884;2023-01-31T16:20:00;96880;;;3.2;77
68891;BME280;55932;48.702;8.884;2023-01-31T16:22:31;96870;;;3.2;77
68891;BME280;55932;48.702;8.884;2023-01-31T16:25:16;96870;;;3.2;77
68891;BME280;55932;48.702;8.884;2023-01-31T16:27:35;96870;;;3.2;77
68891;BME280;55932;48.702;8.884;2023-01-31T16:30:04;96860;;;3.2;77
68891;BME280;55932;48.702;8.884;2023-01-31T16:32:36;96860;;;3.2;77
68891;BME280;55932;48.702;8.884;2023-01-31T16:35:21;96870;;;3.2;77
68891;BME280;55932;48.702;8.884;2023-01-31T16:40:17;96870;;;3.3;77
68891;BME280;55932;48.702;8.884;2023-01-31T16:42:39;96880;;;3.2;77
68891;BME280;55932;48.702;8.884;2023-01-31T16:45:25;96890;;;3.3;77
68891;BME280;55932;48.702;8.884;2023-01-31T16:47:45;96880;;;3.2;77
68891;BME280;55932;48.702;8.884;2023-01-31T16:50:23;96890;;;3.2;77
68891;BME280;55932;48.702;8.884;2023-01-31T16:52:43;96890;;;3.2;77
68891;BME280;55932;48.702;8.884;2023-01-31T16:55:15;96880;;;3.2;77
68891;BME280;55932;48.702;8.884;2023-01-31T16:57:45;96890;;;3.2;77
68891;BME280;55932;48.702;8.884;2023-01-31T17:02:54;96900;;;3.2;77
68891;BME280;55932;48.702;8.884;2023-01-31T17:10:26;96890;;;3.1;77
68891;BME280;55932;48.702;8.884;2023-01-31T17:13:21;96900;;;3.2;77
68891;BME280;55932;48.702;8.884;2023-01-31T17:15:26;96900;;;3.2;77
68891;BME280;55932;48.702;8.884;2023-01-31T17:17:51;96900;;;3.1;77
68891;BME280;55932;48.702;8.884;2023-01-31T17:20:20;96900;;;3.1;77
68891;BME280;55932;48.702;8.884;2023-01-31T17:25:17;96900;;;3.1;77
68891;BME280;55932;48.702;8.884;2023-01-31T17:27:46;96900;;;3.1;77
68891;BME280;55932;48.702;8.884;2023-01-31T17:32:47;96890;;;3.2;77
68891;BME280;55932;48.702;8.884;2023-01-31T17:42:51;96900;;;3.1;77
68891;BME280;55932;48.702;8.884;2023-01-31T17:45:21;96900;;;3.1;77
68891;BME280;55932;48.702;8.884;2023-01-31T17:47:52;96890;;;3.1;77
68891;BME280;55932;48.702;8.884;2023-01-31T17:50:33;96890;;;3.1;77
68891;BME280;55932;48.702;8.884;2023-01-31T17:52:54;96890;;;3.1;77
68891;BME280;55932;48.702;8.884;2023-01-31T18:02:56;96890;;;3.3;76
68891;BME280;55932;48.702;8.884;2023-01-31T18:08:11;96890;;;3.3;76
68891;BME280;55932;48.702;8.884;2023-01-31T18:10:41;96890;;;3.3;76
68891;BME280;55932;48.702;8.884;2023-01-31T18:15:35;96880;;;3.3;76
68891;BME280;55932;48.702;8.884;2023-01-31T18:18:06;96880;;;3.3;76
68891;BME280;55932;48.702;8.884;2023-01-31T18:20:37;96890;;;3.3;76
68891;BME280;55932;48.702;8.884;2023-01-31T18:30:33;96870;;;3.2;76
68891;BME280;55932;48.702;8.884;2023-01-31T18:33:04;96870;;;3.2;76
68891;BME280;55932;48.702;8.884;2023-01-31T18:35:34;96860;;;3.3;76
68891;BME280;55932;48.702;8.884;2023-01-31T18:38:05;96870;;;3.3;76
68891;BME280;55932;48.702;8.884;2023-01-31T18:43:12;96870;;;3.3;76
68891;BME280;55932;48.702;8.884;2023-01-31T18:45:43;96860;;;3.3;76
68891;BME280;55932;48.702;8.884;2023-01-31T18:48:14;96860;;;3.3;76
68891;BME280;55932;48.702;8.884;2023-01-31T18:50:38;96870;;;3.4;76
68891;BME280;55932;48.702;8.884;2023-01-31T19:00:41;96870;;;3.4;76
68891;BME280;55932;48.702;8.884;2023-01-31T19:03:12;96870;;;3.4;76
68891;BME280;55932;48.702;8.884;2023-01-31T19:05:43;96880;;;3.4;76
68891;BME280;55932;48.702;8.884;2023-01-31T19:08:14;96880;;;3.4;76
68891;BME280;55932;48.702;8.884;2023-01-31T19:11:01;96870;;;3.3;76
68891;BME280;55932;48.702;8.884;2023-01-31T19:13:28;96870;;;3.4;76
68891;BME280;55932;48.702;8.884;2023-01-31T19:15:57;96860;;;3.3;76
68891;BME280;55932;48.702;8.884;2023-01-31T19:18:23;96860;;;3.3;76
68891;BME280;55932;48.702;8.884;2023-01-31T19:20:54;96850;;;3.3;76
68891;BME280;55932;48.702;8.884;2023-01-31T19:23:31;96850;;;3.3;76
68891;BME280;55932;48.702;8.884;2023-01-31T19:28:39;96850;;;3.2;76
68891;BME280;55932;48.702;8.884;2023-01-31T19:31:18;96850;;;3.2;76
68891;BME280;55932;48.702;8.884;2023-01-31T19:33:33;96850;;;3.1;76
68891;BME280;55932;48.702;8.884;2023-01-31T19:36:13;96860;;;3.1;76
68891;BME280;55932;48.702;8.884;2023-01-31T19:38:28;96860;;;3.2;76
68891;BME280;55932;48.702;8.884;2023-01-31T19:41:07;96860;;;3.2;76
68891;BME280;55932;48.702;8.884;2023-01-31T19:43:44;96860;;;3.2;76
68891;BME280;55932;48.702;8.884;2023-01-31T19:46:01;96860;;;3.2;76
68891;BME280;55932;48.702;8.884;2023-01-31T19:48:39;96840;;;3.2;76
68891;BME280;55932;48.702;8.884;2023-01-31T19:50:56;96840;;;3.1;76
68891;BME280;55932;48.702;8.884;2023-01-31T19:53:28;96840;;;3.1;76
68891;BME280;55932;48.702;8.884;2023-01-31T19:55:58;96840;;;3;76
68891;BME280;55932;48.702;8.884;2023-01-31T19:58:28;96840;;;2.8;76.5
68891;BME280;55932;48.702;8.884;2023-01-31T20:01:00;96840;;;2.8;76.5
68891;BME280;55932;48.702;8.884;2023-01-31T20:03:30;96830;;;2.9;76.5
68891;BME280;55932;48.702;8.884;2023-01-31T20:06:01;96840;;;2.9;76.5
68891;BME280;55932;48.702;8.884;2023-01-31T20:08:34;96840;;;2.8;76.5
68891;BME280;55932;48.702;8.884;2023-01-31T20:11:02;96840;;;2.8;76.5
68891;BME280;55932;48.702;8.884;2023-01-31T20:21:05;96840;;;3.2;76
68891;BME280;55932;48.702;8.884;2023-01-31T20:26:13;96850;;;3.2;76
68891;BME280;55932;48.702;8.884;2023-01-31T20:28:44;96840;;;3.2;76
68891;BME280;55932;48.702;8.884;2023-01-31T20:33:39;96840;;;3.2;76
68891;BME280;55932;48.702;8.884;2023-01-31T20:36:10;96850;;;3.2;76
68891;BME280;55932;48.702;8.884;2023-01-31T20:38:40;96850;;;3.2;76
68891;BME280;55932;48.702;8.884;2023-01-31T20:41:11;96850;;;3.2;76
68891;BME280;55932;48.702;8.884;2023-01-31T20:48:44;96840;;;3.1;76